sensor_id;sensor_type;location;lat;lon;timestamp;temperature;humidity
16315;DHT22;8266;52.150;4.768;2022-07-01T00:01:02;17.90;99.90
16315;DHT22;8266;52.150;4.768;2022-07-01T00:03:29;17.90;99.90
16315;DHT22;8266;52.150;4.768;2022-07-01T00:06:01;17.90;99.90
16315;DHT22;8266;52.150;4.768;2022-07-01T00:08:28;17.90;99.90
16315;DHT22;8266;52.150;4.768;2022-07-01T00:10:55;18.00;99.90
16315;DHT22;8266;52.150;4.768;2022-07-01T00:13:22;17.90;99.90
16315;DHT22;8266;52.150;4.768;2022-07-01T00:15:49;17.90;99.90
16315;DHT22;8266;52.150;4.768;2022-07-01T00:18:16;18.00;99.90
16315;DHT22;8266;52.150;4.768;2022-07-01T00:20:43;17.90;99.90
16315;DHT22;8266;52.150;4.768;2022-07-01T00:23:11;17.90;99.90
16315;DHT22;8266;52.150;4.768;2022-07-01T00:25:40;17.90;99.90
16315;DHT22;8266;52.150;4.768;2022-07-01T00:28:07;17.90;99.90
16315;DHT22;8266;52.150;4.768;2022-07-01T00:30:34;17.90;99.90
16315;DHT22;8266;52.150;4.768;2022-07-01T00:33:01;17.90;99.90
16315;DHT22;8266;52.150;4.768;2022-07-01T00:35:28;18.00;99.90
16315;DHT22;8266;52.150;4.768;2022-07-01T00:37:55;18.00;99.90
16315;DHT22;8266;52.150;4.768;2022-07-01T00:40:24;18.00;99.90
16315;DHT22;8266;52.150;4.768;2022-07-01T00:42:51;18.00;99.90
16315;DHT22;8266;52.150;4.768;2022-07-01T00:45:18;18.00;99.90
16315;DHT22;8266;52.150;4.768;2022-07-01T00:47:45;18.00;99.90
16315;DHT22;8266;52.150;4.768;2022-07-01T00:50:14;18.00;99.90
16315;DHT22;8266;52.150;4.768;2022-07-01T00:52:43;17.90;99.90
16315;DHT22;8266;52.150;4.768;2022-07-01T00:55:11;18.00;99.90
16315;DHT22;8266;52.150;4.768;2022-07-01T00:57:41;17.90;99.90
16315;DHT22;8266;52.150;4.768;2022-07-01T01:00:11;17.90;99.90
16315;DHT22;8266;52.150;4.768;2022-07-01T01:02:39;17.90;99.90
16315;DHT22;8266;52.150;4.768;2022-07-01T01:05:07;17.80;99.90
16315;DHT22;8266;52.150;4.768;2022-07-01T01:07:35;17.80;99.90
16315;DHT22;8266;52.150;4.768;2022-07-01T01:10:05;17.80;99.90
16315;DHT22;8266;52.150;4.768;2022-07-01T01:12:32;17.70;99.90
16315;DHT22;8266;52.150;4.768;2022-07-01T01:15:01;17.70;99.90
16315;DHT22;8266;52.150;4.768;2022-07-01T01:17:29;17.70;99.90
16315;DHT22;8266;52.150;4.768;2022-07-01T01:19:58;17.70;99.90
16315;DHT22;8266;52.150;4.768;2022-07-01T01:22:26;17.60;99.90
16315;DHT22;8266;52.150;4.768;2022-07-01T01:24:53;17.60;99.90
16315;DHT22;8266;52.150;4.768;2022-07-01T01:27:20;17.60;99.90
16315;DHT22;8266;52.150;4.768;2022-07-01T01:29:47;17.60;99.90
16315;DHT22;8266;52.150;4.768;2022-07-01T01:32:14;17.60;99.90
16315;DHT22;8266;52.150;4.768;2022-07-01T01:34:42;17.60;99.90
16315;DHT22;8266;52.150;4.768;2022-07-01T01:37:10;17.60;99.90
16315;DHT22;8266;52.150;4.768;2022-07-01T01:39:38;17.50;99.90
16315;DHT22;8266;52.150;4.768;2022-07-01T01:42:05;17.50;99.90
16315;DHT22;8266;52.150;4.768;2022-07-01T01:44:33;17.50;99.90
16315;DHT22;8266;52.150;4.768;2022-07-01T01:47:03;17.50;99.90
16315;DHT22;8266;52.150;4.768;2022-07-01T01:49:33;17.50;99.90
16315;DHT22;8266;52.150;4.768;2022-07-01T01:52:04;17.40;99.90
16315;DHT22;8266;52.150;4.768;2022-07-01T01:54:32;17.40;99.90
16315;DHT22;8266;52.150;4.768;2022-07-01T01:57:04;17.40;99.90
16315;DHT22;8266;52.150;4.768;2022-07-01T01:59:33;17.40;99.90
16315;DHT22;8266;52.150;4.768;2022-07-01T02:02:03;17.40;99.90
16315;DHT22;8266;52.150;4.768;2022-07-01T02:04:34;17.40;99.90
16315;DHT22;8266;52.150;4.768;2022-07-01T02:07:01;17.30;99.90
16315;DHT22;8266;52.150;4.768;2022-07-01T02:09:28;17.30;99.90
16315;DHT22;8266;52.150;4.768;2022-07-01T02:11:55;17.30;99.90
16315;DHT22;8266;52.150;4.768;2022-07-01T02:14:24;17.30;99.90
16315;DHT22;8266;52.150;4.768;2022-07-01T02:16:51;17.30;99.90
16315;DHT22;8266;52.150;4.768;2022-07-01T02:19:18;17.30;99.90
16315;DHT22;8266;52.150;4.768;2022-07-01T02:21:45;17.30;99.90
16315;DHT22;8266;52.150;4.768;2022-07-01T02:24:12;17.20;99.90
16315;DHT22;8266;52.150;4.768;2022-07-01T02:26:39;17.30;99.90
16315;DHT22;8266;52.150;4.768;2022-07-01T02:29:06;17.30;99.90
16315;DHT22;8266;52.150;4.768;2022-07-01T02:31:34;17.20;99.90
16315;DHT22;8266;52.150;4.768;2022-07-01T02:34:02;17.20;99.90
16315;DHT22;8266;52.150;4.768;2022-07-01T02:36:29;17.20;99.90
16315;DHT22;8266;52.150;4.768;2022-07-01T02:39:00;17.20;99.90
16315;DHT22;8266;52.150;4.768;2022-07-01T02:41:28;17.20;99.90
16315;DHT22;8266;52.150;4.768;2022-07-01T02:43:55;17.20;99.90
16315;DHT22;8266;52.150;4.768;2022-07-01T02:46:22;17.10;99.90
16315;DHT22;8266;52.150;4.768;2022-07-01T02:48:51;17.10;99.90
16315;DHT22;8266;52.150;4.768;2022-07-01T02:51:18;17.10;99.90
16315;DHT22;8266;52.150;4.768;2022-07-01T02:53:45;17.20;99.90
16315;DHT22;8266;52.150;4.768;2022-07-01T02:56:12;17.10;99.90
16315;DHT22;8266;52.150;4.768;2022-07-01T02:58:39;17.10;99.90
16315;DHT22;8266;52.150;4.768;2022-07-01T03:01:07;17.20;99.90
16315;DHT22;8266;52.150;4.768;2022-07-01T03:03:36;17.10;99.90
16315;DHT22;8266;52.150;4.768;2022-07-01T03:06:04;17.10;99.90
16315;DHT22;8266;52.150;4.768;2022-07-01T03:08:31;17.00;99.90
16315;DHT22;8266;52.150;4.768;2022-07-01T03:10:58;17.10;99.90
16315;DHT22;8266;52.150;4.768;2022-07-01T03:13:25;17.10;99.90
16315;DHT22;8266;52.150;4.768;2022-07-01T03:15:52;17.10;99.90
16315;DHT22;8266;52.150;4.768;2022-07-01T03:18:19;17.10;99.90
16315;DHT22;8266;52.150;4.768;2022-07-01T03:20:46;17.10;99.90
16315;DHT22;8266;52.150;4.768;2022-07-01T03:23:16;17.10;99.90
16315;DHT22;8266;52.150;4.768;2022-07-01T03:25:43;17.00;99.90
16315;DHT22;8266;52.150;4.768;2022-07-01T03:28:10;17.10;99.90
16315;DHT22;8266;52.150;4.768;2022-07-01T03:30:37;17.00;99.90
16315;DHT22;8266;52.150;4.768;2022-07-01T03:33:04;17.00;99.90
16315;DHT22;8266;52.150;4.768;2022-07-01T03:35:31;17.00;99.90
16315;DHT22;8266;52.150;4.768;2022-07-01T03:38:06;17.00;99.90
16315;DHT22;8266;52.150;4.768;2022-07-01T03:40:35;17.00;99.90
16315;DHT22;8266;52.150;4.768;2022-07-01T03:43:03;17.00;99.90
16315;DHT22;8266;52.150;4.768;2022-07-01T03:45:33;17.00;99.90
16315;DHT22;8266;52.150;4.768;2022-07-01T03:48:03;16.90;99.90
16315;DHT22;8266;52.150;4.768;2022-07-01T03:50:34;16.90;99.90
16315;DHT22;8266;52.150;4.768;2022-07-01T03:53:01;16.90;99.90
16315;DHT22;8266;52.150;4.768;2022-07-01T03:55:47;16.90;99.90
16315;DHT22;8266;52.150;4.768;2022-07-01T03:58:14;16.90;99.90
16315;DHT22;8266;52.150;4.768;2022-07-01T04:00:42;16.90;99.90
16315;DHT22;8266;52.150;4.768;2022-07-01T04:03:09;16.90;99.90
16315;DHT22;8266;52.150;4.768;2022-07-01T04:05:37;16.90;99.90
16315;DHT22;8266;52.150;4.768;2022-07-01T04:08:06;16.80;99.90
16315;DHT22;8266;52.150;4.768;2022-07-01T04:10:34;16.90;99.90
16315;DHT22;8266;52.150;4.768;2022-07-01T04:13:06;16.90;99.90
16315;DHT22;8266;52.150;4.768;2022-07-01T04:15:33;16.80;99.90
16315;DHT22;8266;52.150;4.768;2022-07-01T04:18:01;16.80;99.90
16315;DHT22;8266;52.150;4.768;2022-07-01T04:20:28;16.90;99.90
16315;DHT22;8266;52.150;4.768;2022-07-01T04:22:55;16.80;99.90
16315;DHT22;8266;52.150;4.768;2022-07-01T04:25:21;16.90;99.90
16315;DHT22;8266;52.150;4.768;2022-07-01T04:27:50;16.90;99.90
16315;DHT22;8266;52.150;4.768;2022-07-01T04:30:18;16.80;99.90
16315;DHT22;8266;52.150;4.768;2022-07-01T04:32:45;16.80;99.90
16315;DHT22;8266;52.150;4.768;2022-07-01T04:35:14;16.90;99.90
16315;DHT22;8266;52.150;4.768;2022-07-01T04:37:41;16.90;99.90
16315;DHT22;8266;52.150;4.768;2022-07-01T04:40:09;17.00;99.90
16315;DHT22;8266;52.150;4.768;2022-07-01T04:42:36;17.00;99.90
16315;DHT22;8266;52.150;4.768;2022-07-01T04:45:02;17.00;99.90
16315;DHT22;8266;52.150;4.768;2022-07-01T04:47:33;17.10;99.90
16315;DHT22;8266;52.150;4.768;2022-07-01T04:50:04;17.10;99.90
16315;DHT22;8266;52.150;4.768;2022-07-01T04:52:33;17.10;99.90
16315;DHT22;8266;52.150;4.768;2022-07-01T04:55:06;17.20;99.90
16315;DHT22;8266;52.150;4.768;2022-07-01T04:57:33;17.20;99.90
16315;DHT22;8266;52.150;4.768;2022-07-01T05:00:04;17.20;99.90
16315;DHT22;8266;52.150;4.768;2022-07-01T05:02:33;17.30;99.90
16315;DHT22;8266;52.150;4.768;2022-07-01T05:05:05;17.30;99.90
16315;DHT22;8266;52.150;4.768;2022-07-01T05:07:33;17.40;99.90
16315;DHT22;8266;52.150;4.768;2022-07-01T05:10:05;17.40;99.90
16315;DHT22;8266;52.150;4.768;2022-07-01T05:12:34;17.50;99.90
16315;DHT22;8266;52.150;4.768;2022-07-01T05:15:04;17.50;99.90
16315;DHT22;8266;52.150;4.768;2022-07-01T05:17:34;17.50;99.90
16315;DHT22;8266;52.150;4.768;2022-07-01T05:20:33;17.60;99.90
16315;DHT22;8266;52.150;4.768;2022-07-01T05:23:17;17.50;99.90
16315;DHT22;8266;52.150;4.768;2022-07-01T05:25:45;17.60;99.90
16315;DHT22;8266;52.150;4.768;2022-07-01T05:28:12;17.60;99.90
16315;DHT22;8266;52.150;4.768;2022-07-01T05:30:39;17.60;99.90
16315;DHT22;8266;52.150;4.768;2022-07-01T05:33:08;17.60;99.90
16315;DHT22;8266;52.150;4.768;2022-07-01T05:35:36;17.50;99.90
16315;DHT22;8266;52.150;4.768;2022-07-01T05:38:03;17.60;99.90
16315;DHT22;8266;52.150;4.768;2022-07-01T05:40:33;17.60;99.90
16315;DHT22;8266;52.150;4.768;2022-07-01T05:43:03;17.60;99.90
16315;DHT22;8266;52.150;4.768;2022-07-01T05:45:31;17.60;99.90
16315;DHT22;8266;52.150;4.768;2022-07-01T05:47:58;17.60;99.90
16315;DHT22;8266;52.150;4.768;2022-07-01T05:50:27;17.60;99.90
16315;DHT22;8266;52.150;4.768;2022-07-01T05:52:54;17.60;99.90
16315;DHT22;8266;52.150;4.768;2022-07-01T05:55:22;17.70;99.90
16315;DHT22;8266;52.150;4.768;2022-07-01T05:57:51;17.70;99.90
16315;DHT22;8266;52.150;4.768;2022-07-01T06:00:20;17.80;99.90
16315;DHT22;8266;52.150;4.768;2022-07-01T06:02:47;17.80;99.90
16315;DHT22;8266;52.150;4.768;2022-07-01T06:05:14;17.80;99.90
16315;DHT22;8266;52.150;4.768;2022-07-01T06:07:42;17.90;99.90
16315;DHT22;8266;52.150;4.768;2022-07-01T06:10:10;18.00;99.90
16315;DHT22;8266;52.150;4.768;2022-07-01T06:12:37;18.00;99.90
16315;DHT22;8266;52.150;4.768;2022-07-01T06:15:06;18.10;99.90
16315;DHT22;8266;52.150;4.768;2022-07-01T06:17:33;18.20;99.90
16315;DHT22;8266;52.150;4.768;2022-07-01T06:20:00;18.30;99.90
16315;DHT22;8266;52.150;4.768;2022-07-01T06:22:27;18.30;99.90
16315;DHT22;8266;52.150;4.768;2022-07-01T06:25:00;18.50;99.90
16315;DHT22;8266;52.150;4.768;2022-07-01T06:27:27;18.60;99.90
16315;DHT22;8266;52.150;4.768;2022-07-01T06:29:54;18.70;99.90
16315;DHT22;8266;52.150;4.768;2022-07-01T06:32:21;18.80;99.90
16315;DHT22;8266;52.150;4.768;2022-07-01T06:34:48;19.00;99.90
16315;DHT22;8266;52.150;4.768;2022-07-01T06:37:16;19.00;99.90
16315;DHT22;8266;52.150;4.768;2022-07-01T06:39:45;19.10;99.90
16315;DHT22;8266;52.150;4.768;2022-07-01T06:42:14;19.20;99.90
16315;DHT22;8266;52.150;4.768;2022-07-01T06:44:44;19.30;99.90
16315;DHT22;8266;52.150;4.768;2022-07-01T06:47:11;19.50;99.90
16315;DHT22;8266;52.150;4.768;2022-07-01T06:49:39;19.60;99.90
16315;DHT22;8266;52.150;4.768;2022-07-01T06:52:06;19.80;99.90
16315;DHT22;8266;52.150;4.768;2022-07-01T06:54:33;19.90;99.90
16315;DHT22;8266;52.150;4.768;2022-07-01T06:57:01;20.10;99.90
16315;DHT22;8266;52.150;4.768;2022-07-01T06:59:33;20.30;99.90
16315;DHT22;8266;52.150;4.768;2022-07-01T07:02:00;20.40;99.90
16315;DHT22;8266;52.150;4.768;2022-07-01T07:04:27;20.50;99.90
16315;DHT22;8266;52.150;4.768;2022-07-01T07:06:54;20.70;99.90
16315;DHT22;8266;52.150;4.768;2022-07-01T07:09:21;20.80;99.90
16315;DHT22;8266;52.150;4.768;2022-07-01T07:11:48;21.00;99.90
16315;DHT22;8266;52.150;4.768;2022-07-01T07:14:15;21.10;99.90
16315;DHT22;8266;52.150;4.768;2022-07-01T07:16:43;21.30;99.90
16315;DHT22;8266;52.150;4.768;2022-07-01T07:19:11;21.40;99.90
16315;DHT22;8266;52.150;4.768;2022-07-01T07:21:37;21.50;99.90
16315;DHT22;8266;52.150;4.768;2022-07-01T07:24:05;21.70;99.90
16315;DHT22;8266;52.150;4.768;2022-07-01T07:26:32;21.80;99.90
16315;DHT22;8266;52.150;4.768;2022-07-01T07:28:59;21.90;99.90
16315;DHT22;8266;52.150;4.768;2022-07-01T07:31:26;22.00;99.90
16315;DHT22;8266;52.150;4.768;2022-07-01T07:34:05;22.00;99.90
16315;DHT22;8266;52.150;4.768;2022-07-01T07:36:33;22.20;99.90
16315;DHT22;8266;52.150;4.768;2022-07-01T07:39:01;22.30;99.90
16315;DHT22;8266;52.150;4.768;2022-07-01T07:41:30;22.30;99.90
16315;DHT22;8266;52.150;4.768;2022-07-01T07:43:57;22.20;99.90
16315;DHT22;8266;52.150;4.768;2022-07-01T07:46:24;22.20;99.90
16315;DHT22;8266;52.150;4.768;2022-07-01T07:48:51;22.10;99.90
16315;DHT22;8266;52.150;4.768;2022-07-01T07:51:19;22.00;99.90
16315;DHT22;8266;52.150;4.768;2022-07-01T07:53:48;21.90;99.90
16315;DHT22;8266;52.150;4.768;2022-07-01T07:56:15;21.70;99.90
16315;DHT22;8266;52.150;4.768;2022-07-01T07:58:42;21.60;99.90
16315;DHT22;8266;52.150;4.768;2022-07-01T08:01:10;21.50;99.90
16315;DHT22;8266;52.150;4.768;2022-07-01T08:03:37;21.40;99.90
16315;DHT22;8266;52.150;4.768;2022-07-01T08:06:04;21.40;99.90
16315;DHT22;8266;52.150;4.768;2022-07-01T08:08:33;21.40;99.90
16315;DHT22;8266;52.150;4.768;2022-07-01T08:11:03;21.40;99.90
16315;DHT22;8266;52.150;4.768;2022-07-01T08:13:30;21.40;99.90
16315;DHT22;8266;52.150;4.768;2022-07-01T08:15:57;21.40;99.90
16315;DHT22;8266;52.150;4.768;2022-07-01T08:18:27;21.40;99.90
16315;DHT22;8266;52.150;4.768;2022-07-01T08:20:57;21.50;99.90
16315;DHT22;8266;52.150;4.768;2022-07-01T08:23:24;21.60;99.90
16315;DHT22;8266;52.150;4.768;2022-07-01T08:25:55;21.80;99.90
16315;DHT22;8266;52.150;4.768;2022-07-01T08:28:24;22.00;99.90
16315;DHT22;8266;52.150;4.768;2022-07-01T08:30:59;22.20;99.90
16315;DHT22;8266;52.150;4.768;2022-07-01T08:33:33;22.30;99.90
16315;DHT22;8266;52.150;4.768;2022-07-01T08:36:14;22.40;99.90
16315;DHT22;8266;52.150;4.768;2022-07-01T08:38:53;22.40;99.90
16315;DHT22;8266;52.150;4.768;2022-07-01T08:41:21;22.40;99.90
16315;DHT22;8266;52.150;4.768;2022-07-01T08:43:48;22.40;99.90
16315;DHT22;8266;52.150;4.768;2022-07-01T08:46:15;22.40;99.90
16315;DHT22;8266;52.150;4.768;2022-07-01T08:48:43;22.40;99.90
16315;DHT22;8266;52.150;4.768;2022-07-01T08:51:11;22.50;99.90
16315;DHT22;8266;52.150;4.768;2022-07-01T08:53:38;22.60;99.90
16315;DHT22;8266;52.150;4.768;2022-07-01T08:56:05;22.70;99.90
16315;DHT22;8266;52.150;4.768;2022-07-01T08:58:51;22.70;99.90
16315;DHT22;8266;52.150;4.768;2022-07-01T09:01:22;22.80;99.90
16315;DHT22;8266;52.150;4.768;2022-07-01T09:03:51;22.90;99.90
16315;DHT22;8266;52.150;4.768;2022-07-01T09:06:19;23.00;99.90
16315;DHT22;8266;52.150;4.768;2022-07-01T09:08:47;23.10;99.90
16315;DHT22;8266;52.150;4.768;2022-07-01T09:11:16;23.10;99.90
16315;DHT22;8266;52.150;4.768;2022-07-01T09:13:44;23.10;99.90
16315;DHT22;8266;52.150;4.768;2022-07-01T09:16:14;23.10;99.90
16315;DHT22;8266;52.150;4.768;2022-07-01T09:18:59;23.10;99.90
16315;DHT22;8266;52.150;4.768;2022-07-01T09:21:28;23.00;99.90
16315;DHT22;8266;52.150;4.768;2022-07-01T09:23:56;22.90;99.90
16315;DHT22;8266;52.150;4.768;2022-07-01T09:26:23;22.80;99.90
16315;DHT22;8266;52.150;4.768;2022-07-01T09:28:53;22.80;99.90
16315;DHT22;8266;52.150;4.768;2022-07-01T09:31:23;22.70;99.90
16315;DHT22;8266;52.150;4.768;2022-07-01T09:34:03;22.60;99.90
16315;DHT22;8266;52.150;4.768;2022-07-01T09:36:31;22.50;99.90
16315;DHT22;8266;52.150;4.768;2022-07-01T09:39:03;22.40;99.90
16315;DHT22;8266;52.150;4.768;2022-07-01T09:41:36;22.30;99.90
16315;DHT22;8266;52.150;4.768;2022-07-01T09:44:08;22.20;99.90
16315;DHT22;8266;52.150;4.768;2022-07-01T09:46:36;22.20;99.90
16315;DHT22;8266;52.150;4.768;2022-07-01T09:49:03;22.20;99.90
16315;DHT22;8266;52.150;4.768;2022-07-01T09:51:30;22.20;99.90
16315;DHT22;8266;52.150;4.768;2022-07-01T09:53:58;22.40;99.90
16315;DHT22;8266;52.150;4.768;2022-07-01T09:56:24;22.60;99.90
16315;DHT22;8266;52.150;4.768;2022-07-01T09:58:52;22.80;99.90
16315;DHT22;8266;52.150;4.768;2022-07-01T10:04:53;23.20;99.90
16315;DHT22;8266;52.150;4.768;2022-07-01T10:07:31;23.40;99.90
16315;DHT22;8266;52.150;4.768;2022-07-01T10:10:21;23.60;99.90
16315;DHT22;8266;52.150;4.768;2022-07-01T10:12:51;23.70;99.90
16315;DHT22;8266;52.150;4.768;2022-07-01T10:15:19;23.80;99.90
16315;DHT22;8266;52.150;4.768;2022-07-01T10:17:49;23.90;99.90
16315;DHT22;8266;52.150;4.768;2022-07-01T10:20:19;24.00;99.90
16315;DHT22;8266;52.150;4.768;2022-07-01T10:22:48;24.20;99.90
16315;DHT22;8266;52.150;4.768;2022-07-01T10:25:41;24.30;99.90
16315;DHT22;8266;52.150;4.768;2022-07-01T10:28:26;24.50;99.90
16315;DHT22;8266;52.150;4.768;2022-07-01T10:30:57;24.80;99.90
16315;DHT22;8266;52.150;4.768;2022-07-01T10:33:34;24.90;99.90
16315;DHT22;8266;52.150;4.768;2022-07-01T10:36:17;24.90;99.90
16315;DHT22;8266;52.150;4.768;2022-07-01T10:39:13;24.90;99.90
16315;DHT22;8266;52.150;4.768;2022-07-01T10:41:56;24.70;99.90
16315;DHT22;8266;52.150;4.768;2022-07-01T10:44:25;24.50;99.90
16315;DHT22;8266;52.150;4.768;2022-07-01T10:46:53;24.40;99.90
16315;DHT22;8266;52.150;4.768;2022-07-01T10:49:54;24.50;99.90
16315;DHT22;8266;52.150;4.768;2022-07-01T10:52:36;24.50;99.90
16315;DHT22;8266;52.150;4.768;2022-07-01T10:55:06;24.70;99.90
16315;DHT22;8266;52.150;4.768;2022-07-01T10:57:38;24.70;99.90
16315;DHT22;8266;52.150;4.768;2022-07-01T11:00:29;24.80;99.90
16315;DHT22;8266;52.150;4.768;2022-07-01T11:03:12;24.90;99.90
16315;DHT22;8266;52.150;4.768;2022-07-01T11:05:40;25.00;99.90
16315;DHT22;8266;52.150;4.768;2022-07-01T11:08:09;25.10;99.90
16315;DHT22;8266;52.150;4.768;2022-07-01T11:10:37;25.20;99.90
16315;DHT22;8266;52.150;4.768;2022-07-01T11:13:04;25.30;99.90
16315;DHT22;8266;52.150;4.768;2022-07-01T11:15:32;25.30;99.90
16315;DHT22;8266;52.150;4.768;2022-07-01T11:18:04;25.20;99.90
16315;DHT22;8266;52.150;4.768;2022-07-01T11:20:32;25.10;99.90
16315;DHT22;8266;52.150;4.768;2022-07-01T11:22:59;25.00;99.90
16315;DHT22;8266;52.150;4.768;2022-07-01T11:25:30;24.80;99.90
16315;DHT22;8266;52.150;4.768;2022-07-01T11:27:57;24.60;99.90
16315;DHT22;8266;52.150;4.768;2022-07-01T11:30:24;24.50;99.90
16315;DHT22;8266;52.150;4.768;2022-07-01T11:32:53;24.50;99.90
16315;DHT22;8266;52.150;4.768;2022-07-01T11:35:22;24.50;99.90
16315;DHT22;8266;52.150;4.768;2022-07-01T11:38:11;24.50;99.90
16315;DHT22;8266;52.150;4.768;2022-07-01T11:41:00;24.40;99.90
16315;DHT22;8266;52.150;4.768;2022-07-01T11:43:29;24.40;99.90
16315;DHT22;8266;52.150;4.768;2022-07-01T11:46:02;24.30;99.90
16315;DHT22;8266;52.150;4.768;2022-07-01T11:48:35;24.20;99.90
16315;DHT22;8266;52.150;4.768;2022-07-01T11:51:06;24.20;99.90
16315;DHT22;8266;52.150;4.768;2022-07-01T11:53:34;24.10;99.90
16315;DHT22;8266;52.150;4.768;2022-07-01T11:56:03;24.10;99.90
16315;DHT22;8266;52.150;4.768;2022-07-01T11:58:44;24.00;99.90
16315;DHT22;8266;52.150;4.768;2022-07-01T12:01:26;23.90;99.90
16315;DHT22;8266;52.150;4.768;2022-07-01T12:03:57;23.70;99.90
16315;DHT22;8266;52.150;4.768;2022-07-01T12:06:25;23.60;99.90
16315;DHT22;8266;52.150;4.768;2022-07-01T12:08:54;23.50;99.90
16315;DHT22;8266;52.150;4.768;2022-07-01T12:11:24;23.30;99.90
16315;DHT22;8266;52.150;4.768;2022-07-01T12:13:52;23.20;99.90
16315;DHT22;8266;52.150;4.768;2022-07-01T12:16:20;23.10;99.90
16315;DHT22;8266;52.150;4.768;2022-07-01T12:18:57;23.00;99.90
16315;DHT22;8266;52.150;4.768;2022-07-01T12:21:26;23.00;99.90
16315;DHT22;8266;52.150;4.768;2022-07-01T12:24:13;23.00;99.90
16315;DHT22;8266;52.150;4.768;2022-07-01T12:26:53;23.00;99.90
16315;DHT22;8266;52.150;4.768;2022-07-01T12:29:22;23.00;99.90
16315;DHT22;8266;52.150;4.768;2022-07-01T12:31:57;23.20;99.90
16315;DHT22;8266;52.150;4.768;2022-07-01T12:34:37;23.40;99.90
16315;DHT22;8266;52.150;4.768;2022-07-01T12:37:10;23.60;99.90
16315;DHT22;8266;52.150;4.768;2022-07-01T12:39:46;23.80;99.90
16315;DHT22;8266;52.150;4.768;2022-07-01T12:42:37;23.90;99.90
16315;DHT22;8266;52.150;4.768;2022-07-01T12:45:06;24.10;99.90
16315;DHT22;8266;52.150;4.768;2022-07-01T12:47:36;24.20;99.90
16315;DHT22;8266;52.150;4.768;2022-07-01T12:50:11;24.40;99.90
16315;DHT22;8266;52.150;4.768;2022-07-01T12:52:40;24.50;99.90
16315;DHT22;8266;52.150;4.768;2022-07-01T12:55:18;24.50;99.90
16315;DHT22;8266;52.150;4.768;2022-07-01T12:57:48;24.70;99.90
16315;DHT22;8266;52.150;4.768;2022-07-01T13:00:16;24.70;99.90
16315;DHT22;8266;52.150;4.768;2022-07-01T13:02:46;24.80;99.90
16315;DHT22;8266;52.150;4.768;2022-07-01T13:05:16;24.90;99.90
16315;DHT22;8266;52.150;4.768;2022-07-01T13:07:43;25.00;99.90
16315;DHT22;8266;52.150;4.768;2022-07-01T13:10:10;25.00;99.90
16315;DHT22;8266;52.150;4.768;2022-07-01T13:12:37;25.10;99.90
16315;DHT22;8266;52.150;4.768;2022-07-01T13:15:06;25.10;99.90
16315;DHT22;8266;52.150;4.768;2022-07-01T13:17:33;25.00;99.90
16315;DHT22;8266;52.150;4.768;2022-07-01T13:20:04;24.90;99.90
16315;DHT22;8266;52.150;4.768;2022-07-01T13:22:31;24.80;99.90
16315;DHT22;8266;52.150;4.768;2022-07-01T13:24:58;24.70;99.90
16315;DHT22;8266;52.150;4.768;2022-07-01T13:27:26;24.50;99.90
16315;DHT22;8266;52.150;4.768;2022-07-01T13:29:53;24.40;99.90
16315;DHT22;8266;52.150;4.768;2022-07-01T13:32:21;24.30;99.90
16315;DHT22;8266;52.150;4.768;2022-07-01T13:34:48;24.20;99.90
16315;DHT22;8266;52.150;4.768;2022-07-01T13:37:16;24.10;99.90
16315;DHT22;8266;52.150;4.768;2022-07-01T13:39:43;24.10;99.90
16315;DHT22;8266;52.150;4.768;2022-07-01T13:42:11;24.10;99.90
16315;DHT22;8266;52.150;4.768;2022-07-01T13:44:39;24.20;99.90
16315;DHT22;8266;52.150;4.768;2022-07-01T13:47:06;24.40;99.90
16315;DHT22;8266;52.150;4.768;2022-07-01T13:49:39;24.50;99.90
16315;DHT22;8266;52.150;4.768;2022-07-01T13:52:08;24.60;99.90
16315;DHT22;8266;52.150;4.768;2022-07-01T13:54:36;24.60;99.90
16315;DHT22;8266;52.150;4.768;2022-07-01T13:57:04;24.70;99.90
16315;DHT22;8266;52.150;4.768;2022-07-01T13:59:34;24.80;99.90
16315;DHT22;8266;52.150;4.768;2022-07-01T14:02:04;24.90;99.90
16315;DHT22;8266;52.150;4.768;2022-07-01T14:04:32;24.90;99.90
16315;DHT22;8266;52.150;4.768;2022-07-01T14:07:08;25.00;99.90
16315;DHT22;8266;52.150;4.768;2022-07-01T14:09:35;25.10;99.90
16315;DHT22;8266;52.150;4.768;2022-07-01T14:12:04;25.20;99.90
16315;DHT22;8266;52.150;4.768;2022-07-01T14:14:35;25.30;99.90
16315;DHT22;8266;52.150;4.768;2022-07-01T14:17:11;25.40;99.90
16315;DHT22;8266;52.150;4.768;2022-07-01T14:19:41;25.40;99.90
16315;DHT22;8266;52.150;4.768;2022-07-01T14:22:12;25.50;99.90
16315;DHT22;8266;52.150;4.768;2022-07-01T14:24:40;25.60;99.90
16315;DHT22;8266;52.150;4.768;2022-07-01T14:27:09;25.70;99.90
16315;DHT22;8266;52.150;4.768;2022-07-01T14:29:46;25.80;99.90
16315;DHT22;8266;52.150;4.768;2022-07-01T14:32:13;25.80;99.90
16315;DHT22;8266;52.150;4.768;2022-07-01T14:34:41;25.90;99.90
16315;DHT22;8266;52.150;4.768;2022-07-01T14:37:12;26.00;99.90
16315;DHT22;8266;52.150;4.768;2022-07-01T14:39:44;26.00;99.90
16315;DHT22;8266;52.150;4.768;2022-07-01T14:42:12;26.10;99.90
16315;DHT22;8266;52.150;4.768;2022-07-01T14:44:53;26.20;99.90
16315;DHT22;8266;52.150;4.768;2022-07-01T14:47:20;26.30;99.90
16315;DHT22;8266;52.150;4.768;2022-07-01T14:49:48;26.30;99.90
16315;DHT22;8266;52.150;4.768;2022-07-01T14:52:19;26.30;99.90
16315;DHT22;8266;52.150;4.768;2022-07-01T14:54:46;26.30;99.90
16315;DHT22;8266;52.150;4.768;2022-07-01T14:57:15;26.30;99.90
16315;DHT22;8266;52.150;4.768;2022-07-01T14:59:43;26.40;99.90
16315;DHT22;8266;52.150;4.768;2022-07-01T15:02:13;26.50;99.90
16315;DHT22;8266;52.150;4.768;2022-07-01T15:04:40;26.50;99.90
16315;DHT22;8266;52.150;4.768;2022-07-01T15:07:08;26.60;99.90
16315;DHT22;8266;52.150;4.768;2022-07-01T15:09:39;26.60;99.90
16315;DHT22;8266;52.150;4.768;2022-07-01T15:12:07;26.60;99.90
16315;DHT22;8266;52.150;4.768;2022-07-01T15:14:34;26.70;99.90
16315;DHT22;8266;52.150;4.768;2022-07-01T15:17:01;26.60;99.90
16315;DHT22;8266;52.150;4.768;2022-07-01T15:19:29;26.60;99.90
16315;DHT22;8266;52.150;4.768;2022-07-01T15:22:05;26.50;99.90
16315;DHT22;8266;52.150;4.768;2022-07-01T15:24:33;26.50;99.90
16315;DHT22;8266;52.150;4.768;2022-07-01T15:27:05;26.50;99.90
16315;DHT22;8266;52.150;4.768;2022-07-01T15:29:32;26.50;99.90
16315;DHT22;8266;52.150;4.768;2022-07-01T15:32:00;26.50;99.90
16315;DHT22;8266;52.150;4.768;2022-07-01T15:34:27;26.50;99.90
16315;DHT22;8266;52.150;4.768;2022-07-01T15:36:54;26.60;99.90
16315;DHT22;8266;52.150;4.768;2022-07-01T15:39:21;26.70;99.90
16315;DHT22;8266;52.150;4.768;2022-07-01T15:41:52;26.70;99.90
16315;DHT22;8266;52.150;4.768;2022-07-01T15:44:22;26.70;99.90
16315;DHT22;8266;52.150;4.768;2022-07-01T15:46:53;26.80;98.30
16315;DHT22;8266;52.150;4.768;2022-07-01T15:49:20;26.80;98.30
16315;DHT22;8266;52.150;4.768;2022-07-01T15:51:47;26.90;99.20
16315;DHT22;8266;52.150;4.768;2022-07-01T15:54:14;26.80;98.50
16315;DHT22;8266;52.150;4.768;2022-07-01T15:56:41;26.80;98.70
16315;DHT22;8266;52.150;4.768;2022-07-01T15:59:08;26.80;98.50
16315;DHT22;8266;52.150;4.768;2022-07-01T16:01:37;26.90;98.50
16315;DHT22;8266;52.150;4.768;2022-07-01T16:04:04;26.90;97.90